Terminal Aerodrome Forecast
Issued by NWS Albuquerque, NM

Home | Current Version | Previous Version | Text Only | Print | Product List | Glossary On
Versions: 1 2 3 4 5 6 7 8 9 10 11 12 13
273
FTUS45 KABQ 272320
TAFABQ
TAF
KABQ 272320Z 2800/2824 29012KT P6SM VCTS SCT070CB OVC100
      TEMPO 2800/2802 VRB15G35KT -SHRA BKN070
     FM280200 24005KT P6SM BKN110
     FM280800 13006KT P6SM BKN080
     FM281600 30006KT P6SM SCT120
     FM282000 24006KT P6SM SCT080 SCT100=

USA.gov is the U.S. government's official web portal to all federal, state and local government web resources and services.